createdAt,value
2022-08-17T00:00:34.437Z,4.93
2022-08-17T00:03:08.275Z,5.00
2022-08-17T00:05:45.115Z,4.80
2022-08-17T00:08:14.238Z,5.10
2022-08-17T00:10:42.866Z,5.17
2022-08-17T00:13:12.959Z,4.37
2022-08-17T00:15:41.091Z,4.97
2022-08-17T00:19:01.507Z,4.97
2022-08-17T00:20:59.353Z,5.47
2022-08-17T00:23:27.738Z,5.40
2022-08-17T00:25:55.967Z,4.87
2022-08-17T00:28:23.976Z,5.47
2022-08-17T00:30:53.830Z,4.93
2022-08-17T00:33:24.603Z,4.67
2022-08-17T00:35:53.719Z,5.00
2022-08-17T00:38:24.621Z,4.80
2022-08-17T00:40:55.669Z,5.33
2022-08-17T00:43:30.250Z,5.20
2022-08-17T00:45:59.232Z,5.13
2022-08-17T00:48:29.317Z,5.17
2022-08-17T00:51:02.618Z,5.50
2022-08-17T00:53:34.645Z,5.40
2022-08-17T00:56:05.613Z,5.40
2022-08-17T00:58:36.162Z,5.17
2022-08-17T01:01:05.278Z,5.63
2022-08-17T01:03:35.443Z,5.00
2022-08-17T01:06:05.202Z,5.50
2022-08-17T01:08:35.325Z,6.13
2022-08-17T01:11:05.255Z,6.07
2022-08-17T01:13:40.633Z,5.70
2022-08-17T01:16:16.937Z,5.53
2022-08-17T01:18:46.633Z,5.10
2022-08-17T01:21:21.303Z,5.53
2022-08-17T01:23:50.775Z,5.87
2022-08-17T01:26:20.287Z,5.43
2022-08-17T01:28:54.508Z,5.83
2022-08-17T01:31:25.584Z,5.60
2022-08-17T01:33:53.981Z,5.60
2022-08-17T01:36:22.412Z,5.53
2022-08-17T01:38:51.842Z,6.07
2022-08-17T01:41:22.953Z,5.30
2022-08-17T01:43:55.759Z,5.47
2022-08-17T01:46:27.915Z,5.50
2022-08-17T01:48:57.713Z,5.63
2022-08-17T01:51:27.305Z,5.57
2022-08-17T01:54:00.469Z,4.97
2022-08-17T01:56:31.070Z,5.57
2022-08-17T01:58:59.064Z,5.33
2022-08-17T02:01:31.211Z,5.80
2022-08-17T02:04:01.183Z,5.60
2022-08-17T02:06:45.175Z,5.17
2022-08-17T02:09:17.216Z,6.10
2022-08-17T02:11:46.417Z,5.40
2022-08-17T02:14:15.283Z,6.07
2022-08-17T02:16:43.606Z,5.30
2022-08-17T02:19:15.582Z,5.90
2022-08-17T02:21:46.119Z,6.50
2022-08-17T02:25:00.591Z,5.33
2022-08-17T02:27:08.417Z,4.67
2022-08-17T02:29:37.291Z,5.30
2022-08-17T02:32:06.043Z,5.10
2022-08-17T02:34:34.065Z,5.53
2022-08-17T02:37:02.082Z,5.30
2022-08-17T02:39:31.485Z,5.47
2022-08-17T02:42:02.589Z,5.60
2022-08-17T02:44:38.923Z,6.00
2022-08-17T02:47:07.958Z,5.67
2022-08-17T02:49:35.951Z,5.40
2022-08-17T02:52:05.262Z,5.83
2022-08-17T02:54:41.702Z,5.40
2022-08-17T02:57:11.285Z,6.03
2022-08-17T02:59:39.545Z,5.70
2022-08-17T03:02:09.391Z,5.90
2022-08-17T03:04:38.023Z,6.10
2022-08-17T03:07:06.648Z,5.87
2022-08-17T03:09:36.008Z,5.93
2022-08-17T03:12:08.390Z,5.57
2022-08-17T03:14:41.464Z,6.13
2022-08-17T03:17:12.811Z,6.50
2022-08-17T03:19:45.793Z,5.67
2022-08-17T03:22:36.904Z,5.57
2022-08-17T03:25:03.097Z,5.37
2022-08-17T03:27:32.178Z,5.73
2022-08-17T03:30:00.210Z,4.93
2022-08-17T03:32:28.397Z,6.03
2022-08-17T03:35:00.111Z,6.00
2022-08-17T03:37:28.155Z,5.40
2022-08-17T03:39:56.302Z,6.00
2022-08-17T03:42:32.052Z,5.97
2022-08-17T03:45:00.796Z,5.63
2022-08-17T03:47:46.458Z,5.97
2022-08-17T03:50:33.849Z,5.30
2022-08-17T03:53:21.699Z,5.67
2022-08-17T03:56:06.922Z,6.10
2022-08-17T03:58:37.392Z,5.33
2022-08-17T04:01:05.935Z,5.30
2022-08-17T04:03:34.604Z,5.60
2022-08-17T04:06:02.612Z,5.87
2022-08-17T04:08:30.964Z,5.87
2022-08-17T04:11:00.095Z,6.00
2022-08-17T04:13:28.626Z,5.60
2022-08-17T04:15:59.298Z,6.00
2022-08-17T04:18:27.290Z,6.03
2022-08-17T04:20:55.462Z,5.47
2022-08-17T04:23:28.303Z,5.87
2022-08-17T04:25:56.277Z,5.97
2022-08-17T04:28:24.229Z,6.10
2022-08-17T04:30:52.364Z,5.90
2022-08-17T04:33:23.995Z,5.90
2022-08-17T04:35:54.759Z,6.10
2022-08-17T04:38:27.984Z,6.40
2022-08-17T04:41:14.839Z,6.33
2022-08-17T04:43:44.822Z,5.63
2022-08-17T04:46:15.761Z,6.10
2022-08-17T04:48:47.062Z,6.37
2022-08-17T04:51:17.061Z,5.53
2022-08-17T04:53:53.198Z,5.93
2022-08-17T04:56:23.268Z,5.40
2022-08-17T04:58:53.510Z,5.77
2022-08-17T05:01:24.547Z,5.70
2022-08-17T05:03:56.123Z,5.87
2022-08-17T05:06:24.487Z,5.63
2022-08-17T05:08:53.083Z,6.27
2022-08-17T05:11:21.432Z,5.47
2022-08-17T05:13:50.668Z,5.90
2022-08-17T05:16:20.220Z,6.80
2022-08-17T05:18:48.393Z,5.97
2022-08-17T05:21:18.872Z,6.00
2022-08-17T05:23:53.911Z,6.17
2022-08-17T05:26:26.664Z,5.73
2022-08-17T05:29:02.407Z,5.97
2022-08-17T05:31:31.155Z,5.90
2022-08-17T05:33:59.638Z,5.67
2022-08-17T05:36:42.603Z,6.10
2022-08-17T05:39:16.414Z,5.53
2022-08-17T05:41:46.819Z,6.00
2022-08-17T05:44:14.940Z,5.97
2022-08-17T05:46:48.612Z,6.00
2022-08-17T05:49:19.601Z,6.37
2022-08-17T05:52:14.842Z,6.00
2022-08-17T05:54:58.536Z,6.27
2022-08-17T05:57:56.029Z,6.10
2022-08-17T06:00:30.546Z,6.13
2022-08-17T06:03:16.368Z,5.53
2022-08-17T06:05:59.186Z,6.07
2022-08-17T06:08:35.091Z,5.97
2022-08-17T06:11:15.327Z,5.80
2022-08-17T06:13:52.466Z,5.53
2022-08-17T06:16:33.677Z,6.07
2022-08-17T06:19:06.877Z,6.43
2022-08-17T06:21:39.313Z,5.40
2022-08-17T06:24:20.132Z,5.47
2022-08-17T06:26:48.820Z,6.10
2022-08-17T06:29:37.239Z,5.70
2022-08-17T06:32:06.728Z,6.10
2022-08-17T06:34:34.932Z,6.83
2022-08-17T06:37:16.599Z,7.50
2022-08-17T06:39:54.858Z,7.47
2022-08-17T06:43:02.358Z,7.23
2022-08-17T06:45:32.898Z,6.90
2022-08-17T06:48:08.054Z,7.50
2022-08-17T06:50:39.934Z,7.07
2022-08-17T06:53:20.993Z,6.83
2022-08-17T06:55:57.036Z,6.67
2022-08-17T06:58:31.853Z,6.77
2022-08-17T07:01:07.393Z,6.27
2022-08-17T07:03:40.708Z,6.00
2022-08-17T07:06:14.374Z,6.00
2022-08-17T07:08:56.632Z,5.43
2022-08-17T07:11:28.930Z,6.00
2022-08-17T07:14:05.310Z,6.10
2022-08-17T07:16:39.345Z,5.73
2022-08-17T07:19:08.326Z,5.20
2022-08-17T07:21:47.746Z,5.87
2022-08-17T07:24:30.858Z,5.47
2022-08-17T07:27:10.115Z,6.50
2022-08-17T07:29:41.668Z,6.60
2022-08-17T07:32:12.432Z,6.60
2022-08-17T07:35:21.168Z,6.23
2022-08-17T07:37:53.055Z,5.93
2022-08-17T07:40:28.098Z,5.80
2022-08-17T07:43:07.809Z,6.43
2022-08-17T07:46:10.196Z,6.13
2022-08-17T07:48:40.846Z,6.10
2022-08-17T07:51:30.262Z,6.27
2022-08-17T07:54:14.217Z,5.40
2022-08-17T07:56:46.449Z,5.93
2022-08-17T07:59:23.014Z,6.03
2022-08-17T08:02:05.998Z,5.57
2022-08-17T08:04:58.840Z,5.57
2022-08-17T08:07:29.450Z,5.30
2022-08-17T08:10:10.143Z,5.40
2022-08-17T08:12:40.000Z,5.83
2022-08-17T08:15:18.960Z,5.60
2022-08-17T08:17:51.914Z,5.07
2022-08-17T08:20:51.792Z,5.73
2022-08-17T08:23:26.459Z,5.10
2022-08-17T08:26:04.504Z,4.90
2022-08-17T08:28:39.433Z,4.77
2022-08-17T08:31:24.354Z,5.20
2022-08-17T08:34:02.784Z,5.20
2022-08-17T08:37:12.629Z,4.67
2022-08-17T08:39:37.926Z,5.47
2022-08-17T08:42:14.356Z,5.13
2022-08-17T08:45:01.350Z,4.80
2022-08-17T08:47:51.229Z,4.68
2022-08-17T08:50:38.171Z,4.57
2022-08-17T08:53:23.487Z,4.37
2022-08-17T08:55:56.739Z,4.03
2022-08-17T08:58:41.866Z,4.25
2022-08-17T09:01:19.583Z,4.63
2022-08-17T09:04:25.151Z,4.47
2022-08-17T09:07:07.906Z,4.80
2022-08-17T09:09:47.565Z,4.63
2022-08-17T09:12:24.875Z,4.87
2022-08-17T09:14:58.903Z,4.77
2022-08-17T09:17:36.656Z,5.27
2022-08-17T09:20:28.082Z,5.00
2022-08-17T09:23:02.762Z,5.18
2022-08-17T09:25:37.990Z,5.35
2022-08-17T09:28:09.220Z,5.17
2022-08-17T09:30:45.434Z,4.93
2022-08-17T09:33:16.994Z,5.18
2022-08-17T09:35:52.419Z,4.93
2022-08-17T09:38:30.344Z,5.57
2022-08-17T09:41:09.191Z,5.17
2022-08-17T09:43:44.657Z,5.57
2022-08-17T09:46:21.682Z,6.10
2022-08-17T09:48:55.614Z,5.87
2022-08-17T09:51:32.049Z,5.93
2022-08-17T09:54:15.141Z,5.60
2022-08-17T09:57:25.768Z,5.90
2022-08-17T10:00:00.854Z,5.87
2022-08-17T10:02:56.040Z,6.30
2022-08-17T10:05:27.994Z,6.53
2022-08-17T10:08:09.278Z,5.90
2022-08-17T10:10:43.512Z,4.57
2022-08-17T10:13:32.066Z,4.17
2022-08-17T10:16:11.097Z,4.40
2022-08-17T10:18:49.643Z,4.60
2022-08-17T10:21:37.499Z,5.93
2022-08-17T10:24:30.758Z,6.20
2022-08-17T10:27:01.913Z,6.90
2022-08-17T10:29:48.423Z,6.57
2022-08-17T10:32:25.715Z,6.60
2022-08-17T10:35:10.500Z,6.57
2022-08-17T10:37:48.406Z,6.40
2022-08-17T10:40:32.455Z,5.70
2022-08-17T10:43:03.211Z,6.17
2022-08-17T10:45:48.231Z,6.37
2022-08-17T10:48:31.543Z,6.80
2022-08-17T10:51:08.930Z,6.70
2022-08-17T10:53:58.201Z,7.27
2022-08-17T10:56:46.900Z,6.40
2022-08-17T10:59:51.431Z,5.70
2022-08-17T11:02:26.060Z,5.43
2022-08-17T11:05:07.613Z,5.00
2022-08-17T11:07:50.457Z,5.37
2022-08-17T11:10:54.527Z,5.90
2022-08-17T11:13:35.407Z,8.80
2022-08-17T11:16:27.740Z,6.03
2022-08-17T11:19:20.995Z,5.77
2022-08-17T11:22:12.049Z,7.00
2022-08-17T11:24:44.105Z,5.80
2022-08-17T11:27:24.931Z,5.70
2022-08-17T11:30:01.541Z,6.00
2022-08-17T11:32:38.433Z,6.13
2022-08-17T11:35:32.813Z,6.00
2022-08-17T11:38:16.299Z,5.90
2022-08-17T11:41:11.536Z,4.97
2022-08-17T11:44:00.395Z,5.27
2022-08-17T11:47:05.937Z,5.93
2022-08-17T11:50:15.574Z,5.93
2022-08-17T11:52:47.062Z,5.87
2022-08-17T11:55:56.805Z,5.73
2022-08-17T11:58:37.722Z,5.60
2022-08-17T12:01:06.982Z,5.07
2022-08-17T12:03:55.985Z,5.60
2022-08-17T12:06:47.644Z,12.30
2022-08-17T12:09:19.813Z,5.63
2022-08-17T12:11:55.461Z,5.37
2022-08-17T12:17:40.389Z,5.63
2022-08-17T12:20:16.225Z,6.13
2022-08-17T12:22:54.744Z,6.20
2022-08-17T12:25:27.206Z,5.47
2022-08-17T12:28:05.036Z,5.70
2022-08-17T12:30:37.413Z,5.43
2022-08-17T12:33:13.273Z,5.67
2022-08-17T12:36:00.608Z,5.60
2022-08-17T12:38:32.263Z,5.07
2022-08-17T12:41:21.639Z,5.10
2022-08-17T12:43:58.514Z,4.80
2022-08-17T12:46:26.566Z,4.73
2022-08-17T12:48:58.962Z,4.70
2022-08-17T12:51:29.889Z,4.63
2022-08-17T12:53:58.348Z,6.03
2022-08-17T12:56:26.618Z,4.63
2022-08-17T12:58:55.577Z,5.30
2022-08-17T13:01:25.965Z,5.23
2022-08-17T13:03:59.746Z,5.60
2022-08-17T13:06:32.110Z,5.57
2022-08-17T13:09:11.443Z,4.60
2022-08-17T13:11:49.207Z,4.80
2022-08-17T13:14:18.944Z,4.77
2022-08-17T13:16:55.923Z,4.43
2022-08-17T13:19:40.162Z,4.73
2022-08-17T13:22:12.711Z,3.90
2022-08-17T13:24:54.034Z,4.10
2022-08-17T13:27:23.881Z,3.85
2022-08-17T13:29:56.322Z,3.92
2022-08-17T13:32:35.865Z,3.75
2022-08-17T13:35:44.263Z,3.85
2022-08-17T13:38:41.065Z,3.88
2022-08-17T13:41:09.083Z,3.55
2022-08-17T13:43:50.466Z,3.47
2022-08-17T13:46:21.812Z,3.10
2022-08-17T13:49:00.639Z,3.20
2022-08-17T13:51:34.896Z,3.42
2022-08-17T13:54:20.335Z,2.95
2022-08-17T13:57:01.309Z,3.03
2022-08-17T13:59:53.552Z,3.35
2022-08-17T14:02:23.360Z,3.08
2022-08-17T14:04:55.706Z,2.90
2022-08-17T14:07:35.866Z,3.00
2022-08-17T14:10:10.449Z,3.90
2022-08-17T14:12:41.578Z,3.35
2022-08-17T14:15:11.628Z,2.95
2022-08-17T14:17:39.662Z,3.03
2022-08-17T14:20:10.984Z,2.97
2022-08-17T14:22:43.929Z,2.90
2022-08-17T14:25:14.833Z,3.20
2022-08-17T14:27:53.663Z,3.28
2022-08-17T14:30:23.745Z,3.05
2022-08-17T14:32:52.651Z,2.90
2022-08-17T14:35:23.122Z,2.53
2022-08-17T14:37:51.559Z,2.92
2022-08-17T14:40:22.603Z,2.67
2022-08-17T14:42:50.873Z,3.10
2022-08-17T14:45:31.623Z,2.92
2022-08-17T14:48:00.612Z,3.00
2022-08-17T14:50:28.602Z,3.15
2022-08-17T14:52:58.111Z,2.80
2022-08-17T14:55:27.736Z,3.00
2022-08-17T14:57:55.828Z,3.13
2022-08-17T15:00:24.074Z,3.20
2022-08-17T15:02:55.744Z,2.90
2022-08-17T15:05:25.955Z,2.67
2022-08-17T15:07:54.527Z,2.92
2022-08-17T15:10:23.972Z,2.92
2022-08-17T15:12:55.069Z,3.15
2022-08-17T15:15:23.557Z,3.28
2022-08-17T15:17:52.147Z,3.20
2022-08-17T15:20:23.814Z,3.35
2022-08-17T15:22:55.181Z,3.85
2022-08-17T15:25:24.940Z,3.35
2022-08-17T15:27:55.748Z,3.95
2022-08-17T15:30:24.639Z,4.03
2022-08-17T15:32:55.232Z,3.75
2022-08-17T15:35:27.321Z,3.90
2022-08-17T15:37:57.546Z,3.45
2022-08-17T15:40:26.095Z,3.47
2022-08-17T15:42:57.781Z,3.33
2022-08-17T15:45:30.548Z,3.78
2022-08-17T15:47:58.638Z,3.40
2022-08-17T15:50:26.730Z,3.28
2022-08-17T15:52:59.523Z,3.63
2022-08-17T15:55:33.214Z,3.80
2022-08-17T15:58:03.183Z,3.40
2022-08-17T16:00:35.473Z,3.50
2022-08-17T16:04:01.866Z,3.80
2022-08-17T16:06:08.807Z,3.67
2022-08-17T16:08:41.535Z,3.90
2022-08-17T16:11:09.895Z,5.05
2022-08-17T16:13:40.631Z,4.65
2022-08-17T16:16:09.439Z,3.42
2022-08-17T16:18:38.939Z,3.50
2022-08-17T16:21:27.473Z,3.90
2022-08-17T16:23:59.370Z,3.90
2022-08-17T16:26:27.819Z,3.88
2022-08-17T16:28:58.049Z,4.25
2022-08-17T16:31:26.174Z,3.90
2022-08-17T16:34:15.455Z,4.20
2022-08-17T16:36:42.500Z,4.55
2022-08-17T16:39:22.867Z,4.18
2022-08-17T16:41:50.891Z,3.92
2022-08-17T16:44:22.036Z,4.20
2022-08-17T16:46:50.683Z,3.70
2022-08-17T16:49:35.556Z,5.40
2022-08-17T16:52:10.060Z,3.95
2022-08-17T16:54:39.460Z,4.13
2022-08-17T16:57:07.441Z,3.90
2022-08-17T16:59:41.840Z,3.72
2022-08-17T17:02:16.064Z,3.85
2022-08-17T17:04:50.991Z,4.00
2022-08-17T17:08:00.751Z,3.90
2022-08-17T17:10:34.146Z,3.83
2022-08-17T17:13:04.546Z,4.10
2022-08-17T17:15:48.249Z,4.40
2022-08-17T17:18:17.519Z,4.07
2022-08-17T17:20:50.621Z,4.20
2022-08-17T17:23:45.907Z,4.20
2022-08-17T17:26:33.040Z,4.40
2022-08-17T17:29:11.748Z,4.63
2022-08-17T17:31:51.177Z,4.50
2022-08-17T17:34:20.524Z,7.53
2022-08-17T17:36:52.508Z,4.93
2022-08-17T17:39:32.834Z,4.67
2022-08-17T17:42:07.679Z,5.30
2022-08-17T17:44:40.748Z,5.20
2022-08-17T17:47:10.510Z,4.73
2022-08-17T17:49:41.906Z,5.30
2022-08-17T17:52:19.178Z,5.00
2022-08-17T17:54:58.631Z,4.67
2022-08-17T17:57:37.266Z,5.23
2022-08-17T18:00:12.367Z,4.60
2022-08-17T18:02:55.120Z,5.20
2022-08-17T18:05:44.451Z,4.80
2022-08-17T18:08:33.877Z,4.80
2022-08-17T18:11:24.715Z,5.10
2022-08-17T18:14:06.996Z,5.40
2022-08-17T18:16:35.814Z,5.30
2022-08-17T18:19:06.170Z,5.20
2022-08-17T18:21:38.714Z,5.10
2022-08-17T18:24:10.722Z,4.90
2022-08-17T18:26:46.608Z,5.30
2022-08-17T18:29:26.337Z,4.50
2022-08-17T18:32:18.830Z,5.43
2022-08-17T18:34:50.028Z,5.33
2022-08-17T18:37:32.983Z,5.40
2022-08-17T18:40:09.326Z,5.17
2022-08-17T18:42:38.687Z,5.33
2022-08-17T18:45:07.353Z,4.70
2022-08-17T18:47:35.826Z,4.50
2022-08-17T18:50:24.472Z,4.83
2022-08-17T18:52:52.767Z,4.80
2022-08-17T18:55:22.878Z,5.13
2022-08-17T18:57:53.292Z,5.00
2022-08-17T19:00:36.427Z,4.70
2022-08-17T19:03:19.305Z,4.50
2022-08-17T19:05:51.453Z,4.63
2022-08-17T19:08:23.853Z,4.43
2022-08-17T19:10:56.670Z,4.70
2022-08-17T19:13:30.179Z,4.27
2022-08-17T19:16:12.225Z,4.63
2022-08-17T19:18:46.331Z,5.50
2022-08-17T19:21:19.520Z,5.10
2022-08-17T19:23:53.713Z,5.30
2022-08-17T19:26:50.517Z,5.93
2022-08-17T19:29:19.507Z,4.97
2022-08-17T19:31:50.867Z,5.10
2022-08-17T19:34:30.143Z,4.87
2022-08-17T19:37:08.833Z,5.30
2022-08-17T19:39:46.104Z,4.80
2022-08-17T19:42:21.577Z,4.73
2022-08-17T19:44:59.979Z,4.80
2022-08-17T19:47:56.022Z,5.10
2022-08-17T19:50:38.294Z,5.60
2022-08-17T19:53:20.215Z,5.20
2022-08-17T19:55:57.490Z,5.17
2022-08-17T19:58:37.211Z,4.87
2022-08-17T20:01:08.196Z,5.20
2022-08-17T20:03:48.217Z,5.43
2022-08-17T20:06:16.408Z,5.30
2022-08-17T20:08:54.648Z,5.20
2022-08-17T20:11:28.842Z,5.37
2022-08-17T20:14:03.639Z,5.60
2022-08-17T20:16:33.424Z,5.37
2022-08-17T20:19:04.106Z,5.67
2022-08-17T20:21:38.054Z,5.70
2022-08-17T20:24:18.884Z,5.47
2022-08-17T20:26:58.489Z,5.40
2022-08-17T20:29:37.747Z,6.07
2022-08-17T20:32:27.294Z,5.30
2022-08-17T20:35:19.215Z,5.33
2022-08-17T20:37:55.287Z,5.97
2022-08-17T20:41:03.044Z,5.60
2022-08-17T20:43:48.984Z,5.80
2022-08-17T20:46:42.524Z,5.23
2022-08-17T20:49:20.904Z,5.77
2022-08-17T20:52:01.265Z,5.50
2022-08-17T20:54:46.083Z,6.07
2022-08-17T20:57:49.008Z,6.20
2022-08-17T21:00:43.533Z,5.77
2022-08-17T21:03:50.852Z,5.67
2022-08-17T21:06:23.166Z,6.50
2022-08-17T21:08:58.975Z,5.70
2022-08-17T21:11:57.335Z,5.97
2022-08-17T21:14:57.349Z,5.97
2022-08-17T21:17:49.950Z,5.90
2022-08-17T21:20:32.983Z,6.10
2022-08-17T21:23:27.452Z,6.20
2022-08-17T21:26:26.728Z,7.43
2022-08-17T21:29:30.158Z,7.63
2022-08-17T21:32:24.233Z,6.37
2022-08-17T21:35:28.954Z,6.30
2022-08-17T21:38:03.447Z,6.40
2022-08-17T21:40:34.172Z,6.03
2022-08-17T21:43:17.600Z,6.10
2022-08-17T21:45:57.624Z,5.63
2022-08-17T21:48:28.100Z,5.97
2022-08-17T21:51:10.371Z,5.80
2022-08-17T21:53:44.196Z,5.97
2022-08-17T21:56:20.404Z,6.47
2022-08-17T21:58:56.731Z,6.10
2022-08-17T22:01:26.706Z,6.23
2022-08-17T22:03:59.908Z,6.23
2022-08-17T22:06:30.887Z,6.33
2022-08-17T22:09:11.875Z,6.10
2022-08-17T22:11:56.885Z,6.77
2022-08-17T22:14:51.580Z,6.70
2022-08-17T22:17:19.531Z,6.40
2022-08-17T22:19:53.103Z,5.83
2022-08-17T22:22:26.766Z,4.83
2022-08-17T22:24:57.583Z,5.17
2022-08-17T22:27:55.465Z,5.40
2022-08-17T22:30:33.156Z,5.50
2022-08-17T22:33:03.038Z,4.80
2022-08-17T22:35:40.963Z,5.37
2022-08-17T22:38:31.989Z,5.13
2022-08-17T22:41:34.521Z,4.80
2022-08-17T22:44:17.997Z,5.10
2022-08-17T22:47:11.473Z,4.33
2022-08-17T22:49:53.007Z,4.73
2022-08-17T22:52:33.433Z,4.70
2022-08-17T22:55:25.761Z,4.60
2022-08-17T22:58:11.545Z,4.27
2022-08-17T23:00:41.461Z,4.57
2022-08-17T23:03:18.864Z,4.37
2022-08-17T23:05:48.754Z,4.80
2022-08-17T23:08:21.369Z,4.60
2022-08-17T23:10:50.147Z,4.53
2022-08-17T23:13:18.629Z,4.40
2022-08-17T23:15:48.096Z,4.67
2022-08-17T23:18:16.971Z,4.53
2022-08-17T23:20:45.817Z,4.63
2022-08-17T23:23:15.757Z,4.43
2022-08-17T23:25:46.114Z,4.50
2022-08-17T23:28:14.314Z,4.50
2022-08-17T23:30:45.033Z,4.90
2022-08-17T23:33:19.897Z,4.97
2022-08-17T23:35:48.002Z,5.07
2022-08-17T23:38:16.119Z,5.10
2022-08-17T23:40:45.581Z,4.67
2022-08-17T23:43:25.541Z,5.13
2022-08-17T23:45:58.471Z,4.60
2022-08-17T23:48:34.949Z,4.80
2022-08-17T23:51:08.606Z,5.37
2022-08-17T23:53:38.592Z,4.70
2022-08-17T23:56:11.171Z,4.93
2022-08-17T23:58:41.932Z,5.10
